Time;durP1;ratioP1;P1;durP2;ratioP2;P2;SDS_P1;SDS_P2;PMS_P1;PMS_P2;Temp;Humidity;BMP_temperature;BMP_pressure;BME280_temperature;BME280_humidity;BME280_pressure;Samples;Min_cycle;Max_cycle;Signal;HPM_P1;HPM_P2
2022/05/09 00:02:14;;;;;;;10.73;3.70;;;;;;;;;;4940061;29;20049;-88
2022/05/09 00:04:40;;;;;;;3.17;2.67;;;;;;;;;;4940278;29;20408;-87
2022/05/09 00:07:06;;;;;;;6.82;2.83;;;;;;;;;;4940329;29;20126;-87
2022/05/09 00:09:32;;;;;;;13.05;3.65;;;;;;;;;;4956000;29;20115;-87
2022/05/09 00:11:58;;;;;;;7.55;3.05;;;;;;;;;;4940071;29;20077;-87
2022/05/09 00:14:25;;;;;;;4.43;2.67;;;;;;;;;;4939981;29;20047;-87
2022/05/09 00:16:52;;;;;;;4.43;3.00;;;;;;;;;;4956022;29;20135;-88
2022/05/09 00:19:20;;;;;;;5.20;2.20;;;;;;;;;;4939899;29;20051;-87
2022/05/09 00:21:47;;;;;;;5.43;2.63;;;;;;;;;;4940600;29;20047;-90
2022/05/09 00:24:14;;;;;;;12.02;3.10;;;;;;;;;;4955843;29;20122;-88
2022/05/09 00:26:48;;;;;;;7.15;2.53;;;;;;;;;;4955842;29;20047;-88
2022/05/09 00:29:15;;;;;;;8.23;3.80;;;;;;;;;;4939895;29;20052;-87
2022/05/09 00:31:43;;;;;;;8.00;2.60;;;;;;;;;;4957098;28;20114;-88
2022/05/09 00:34:10;;;;;;;4.32;2.38;;;;;;;;;;4939819;29;20047;-88
2022/05/09 00:36:36;;;;;;;4.22;1.90;;;;;;;;;;4940157;29;20051;-88
2022/05/09 00:39:02;;;;;;;1.60;1.02;;;;;;;;;;4939798;29;20408;-89
2022/05/09 00:41:29;;;;;;;2.35;1.10;;;;;;;;;;4939968;29;20043;-88
2022/05/09 00:43:56;;;;;;;5.15;1.17;;;;;;;;;;4940990;29;20373;-90
2022/05/09 00:46:22;;;;;;;4.07;1.60;;;;;;;;;;4939807;29;20047;-88
2022/05/09 00:48:50;;;;;;;2.25;1.58;;;;;;;;;;4955575;29;20047;-87
2022/05/09 00:51:26;;;;;;;4.10;1.30;;;;;;;;;;4939267;29;20047;-90
2022/05/09 00:53:52;;;;;;;1.50;1.40;;;;;;;;;;4940181;29;20377;-87
2022/05/09 00:56:25;;;;;;;1.30;1.20;;;;;;;;;;4955813;29;20047;-87
2022/05/09 00:58:55;;;;;;;3.40;1.48;;;;;;;;;;4956543;29;20043;-87
2022/05/09 01:01:21;;;;;;;3.50;1.45;;;;;;;;;;4939150;29;20056;-87
2022/05/09 01:04:10;;;;;;;2.75;1.30;;;;;;;;;;4939029;29;20047;-86
2022/05/09 01:06:38;;;;;;;2.00;1.60;;;;;;;;;;4897578;29;20522;-87
2022/05/09 01:09:07;;;;;;;2.72;1.90;;;;;;;;;;4866829;29;20144;-87
2022/05/09 01:11:34;;;;;;;3.72;1.42;;;;;;;;;;4897339;29;20056;-88
2022/05/09 01:14:08;;;;;;;1.88;1.10;;;;;;;;;;4867347;29;20057;-86
2022/05/09 01:16:35;;;;;;;4.00;1.15;;;;;;;;;;4882276;29;20048;-86
2022/05/09 01:19:03;;;;;;;3.33;1.02;;;;;;;;;;4866781;29;20127;-86
2022/05/09 01:21:31;;;;;;;0.60;0.60;;;;;;;;;;4898562;29;20414;-86
2022/05/09 01:23:58;;;;;;;1.08;0.77;;;;;;;;;;4898749;29;20104;-87
2022/05/09 01:26:24;;;;;;;1.85;1.17;;;;;;;;;;4867673;29;20407;-86
2022/05/09 01:28:50;;;;;;;2.15;0.80;;;;;;;;;;4867480;29;20059;-86
2022/05/09 01:31:18;;;;;;;2.38;1.35;;;;;;;;;;4898005;29;20427;-86
2022/05/09 01:33:46;;;;;;;3.58;1.27;;;;;;;;;;4882145;29;20048;-87
2022/05/09 01:36:16;;;;;;;3.20;1.60;;;;;;;;;;4866674;29;20048;-86
2022/05/09 01:38:44;;;;;;;5.93;2.03;;;;;;;;;;4866798;29;20147;-86
2022/05/09 01:41:10;;;;;;;3.60;1.90;;;;;;;;;;4867310;29;20036;-88
2022/05/09 01:43:41;;;;;;;3.45;2.17;;;;;;;;;;4903232;29;20059;-87
2022/05/09 01:46:09;;;;;;;5.68;2.88;;;;;;;;;;4939069;29;20134;-86
2022/05/09 01:51:20;;;;;;;7.40;2.40;;;;;;;;;;4955024;29;20054;-87
2022/05/09 01:53:52;;;;;;;9.40;2.25;;;;;;;;;;4956687;28;20049;-86
2022/05/09 01:56:22;;;;;;;5.30;2.55;;;;;;;;;;4938475;29;20039;-86
2022/05/09 01:58:49;;;;;;;3.05;1.10;;;;;;;;;;4954889;29;20054;-86
2022/05/09 02:01:18;;;;;;;2.88;0.70;;;;;;;;;;4956009;29;20568;-86
2022/05/09 02:03:45;;;;;;;5.22;2.03;;;;;;;;;;4954515;28;20039;-87
2022/05/09 02:06:11;;;;;;;2.17;1.83;;;;;;;;;;4939695;29;20051;-90
2022/05/09 02:08:38;;;;;;;4.20;1.80;;;;;;;;;;4938268;29;20106;-88
2022/05/09 02:11:04;;;;;;;4.47;2.45;;;;;;;;;;4938880;29;20039;-87
2022/05/09 02:13:31;;;;;;;2.97;2.00;;;;;;;;;;4954964;29;20047;-88
2022/05/09 02:15:57;;;;;;;4.57;2.05;;;;;;;;;;4954613;29;20484;-87
2022/05/09 02:18:23;;;;;;;5.88;2.17;;;;;;;;;;4954867;29;20055;-89
2022/05/09 02:20:49;;;;;;;5.10;2.72;;;;;;;;;;4954458;29;20050;-87
2022/05/09 02:23:17;;;;;;;4.03;2.08;;;;;;;;;;4954439;29;20079;-88
2022/05/09 02:25:44;;;;;;;6.88;1.98;;;;;;;;;;4953980;29;20059;-88
2022/05/09 02:28:11;;;;;;;6.30;2.15;;;;;;;;;;4954559;29;20130;-88
2022/05/09 02:30:40;;;;;;;4.13;1.95;;;;;;;;;;4954244;29;20043;-88
2022/05/09 02:33:07;;;;;;;2.03;1.58;;;;;;;;;;4954307;29;20453;-88
2022/05/09 02:35:33;;;;;;;3.38;1.40;;;;;;;;;;4938322;29;20462;-87
2022/05/09 02:37:59;;;;;;;3.88;1.77;;;;;;;;;;4953961;29;20051;-87
2022/05/09 02:40:26;;;;;;;2.28;1.67;;;;;;;;;;4938008;29;20077;-87
2022/05/09 02:42:58;;;;;;;15.27;2.20;;;;;;;;;;4937793;29;20055;-88
2022/05/09 02:45:25;;;;;;;2.10;1.50;;;;;;;;;;4937861;29;20416;-87
2022/05/09 02:47:51;;;;;;;3.85;1.60;;;;;;;;;;4938346;29;20054;-87
2022/05/09 02:50:17;;;;;;;3.85;1.75;;;;;;;;;;4938082;29;20051;-87
2022/05/09 02:52:43;;;;;;;2.03;1.40;;;;;;;;;;4937963;29;20039;-87
2022/05/09 02:55:11;;;;;;;2.70;1.60;;;;;;;;;;4953913;29;20134;-89
2022/05/09 02:57:37;;;;;;;2.72;2.13;;;;;;;;;;4938056;29;20396;-86
2022/05/09 03:00:10;;;;;;;5.72;2.28;;;;;;;;;;4937761;29;20050;-87
2022/05/09 03:02:37;;;;;;;3.63;1.77;;;;;;;;;;4937750;29;20043;-87
2022/05/09 03:05:04;;;;;;;1.77;1.67;;;;;;;;;;4937566;29;20039;-88
2022/05/09 03:07:30;;;;;;;6.50;2.00;;;;;;;;;;4937819;29;20110;-87
2022/05/09 03:09:56;;;;;;;2.08;1.90;;;;;;;;;;4953648;29;20043;-87
2022/05/09 03:12:22;;;;;;;2.83;1.92;;;;;;;;;;4937775;29;20134;-88
2022/05/09 03:14:48;;;;;;;2.13;1.50;;;;;;;;;;4954887;28;20082;-87
2022/05/09 03:17:15;;;;;;;9.43;1.83;;;;;;;;;;4941277;29;20090;-88
2022/05/09 03:19:41;;;;;;;1.38;0.98;;;;;;;;;;4941162;29;20043;-88
2022/05/09 03:22:07;;;;;;;1.90;1.60;;;;;;;;;;4941562;29;20047;-88
2022/05/09 03:24:33;;;;;;;5.70;2.33;;;;;;;;;;4941555;29;20543;-88
2022/05/09 03:27:02;;;;;;;5.53;1.90;;;;;;;;;;4956924;29;20134;-88
2022/05/09 03:29:28;;;;;;;2.10;1.65;;;;;;;;;;4941514;29;20051;-87
2022/05/09 03:31:54;;;;;;;7.82;2.78;;;;;;;;;;4941277;29;20385;-88
2022/05/09 03:34:20;;;;;;;2.60;2.05;;;;;;;;;;4941142;29;20412;-88
2022/05/09 03:36:47;;;;;;;5.32;2.25;;;;;;;;;;4941213;29;20047;-89
2022/05/09 03:39:13;;;;;;;2.83;2.13;;;;;;;;;;4940925;29;20039;-88
2022/05/09 03:41:39;;;;;;;6.72;2.72;;;;;;;;;;4957542;29;20055;-87
2022/05/09 03:44:06;;;;;;;9.73;2.65;;;;;;;;;;4956774;29;20043;-87
2022/05/09 03:46:32;;;;;;;4.72;3.28;;;;;;;;;;4941284;29;20047;-89
2022/05/09 03:49:01;;;;;;;3.80;2.90;;;;;;;;;;4941511;29;20437;-87
2022/05/09 03:51:27;;;;;;;23.05;3.30;;;;;;;;;;4940991;29;20405;-89
2022/05/09 03:53:53;;;;;;;6.82;3.10;;;;;;;;;;4940438;29;20563;-89
2022/05/09 03:56:19;;;;;;;3.85;2.60;;;;;;;;;;4956891;29;20043;-88
2022/05/09 03:58:45;;;;;;;12.93;2.35;;;;;;;;;;4941885;29;20047;-88
2022/05/09 04:01:11;;;;;;;32.95;4.00;;;;;;;;;;4956773;29;20058;-88
2022/05/09 04:03:38;;;;;;;30.52;4.13;;;;;;;;;;4940451;29;20397;-87
2022/05/09 04:06:04;;;;;;;4.13;2.25;;;;;;;;;;4940785;29;20488;-88
2022/05/09 04:08:30;;;;;;;5.05;2.42;;;;;;;;;;4957965;28;20396;-89
2022/05/09 04:10:56;;;;;;;6.97;2.78;;;;;;;;;;4940599;29;20055;-89
2022/05/09 04:13:23;;;;;;;5.22;2.38;;;;;;;;;;4956931;29;20103;-88
2022/05/09 04:18:40;;;;;;;6.88;2.90;;;;;;;;;;4956203;29;20047;-88
2022/05/09 04:21:07;;;;;;;7.40;2.80;;;;;;;;;;4940390;29;20460;-86
2022/05/09 04:23:34;;;;;;;6.07;2.53;;;;;;;;;;4956429;29;20082;-88
2022/05/09 04:26:00;;;;;;;3.85;2.65;;;;;;;;;;4957138;28;20063;-87
2022/05/09 04:28:27;;;;;;;3.15;2.25;;;;;;;;;;4940101;29;20148;-87
2022/05/09 04:30:53;;;;;;;3.55;2.42;;;;;;;;;;4957513;29;20046;-88
2022/05/09 04:33:19;;;;;;;2.40;1.98;;;;;;;;;;4955843;28;20079;-87
2022/05/09 04:35:45;;;;;;;6.22;2.47;;;;;;;;;;4955982;29;20107;-87
2022/05/09 04:38:18;;;;;;;6.13;1.98;;;;;;;;;;4956195;29;20408;-87
2022/05/09 04:40:45;;;;;;;2.15;1.75;;;;;;;;;;4956563;29;20078;-87
2022/05/09 04:43:12;;;;;;;3.58;2.20;;;;;;;;;;4957596;28;20061;-88
2022/05/09 04:45:38;;;;;;;2.10;1.80;;;;;;;;;;4955686;29;20051;-87
2022/05/09 04:48:04;;;;;;;5.25;2.90;;;;;;;;;;4956712;29;20098;-87
2022/05/09 04:50:34;;;;;;;7.30;2.70;;;;;;;;;;4957552;28;20055;-87
2022/05/09 04:53:00;;;;;;;4.40;2.63;;;;;;;;;;4958158;29;20408;-87
2022/05/09 04:55:26;;;;;;;4.47;2.10;;;;;;;;;;4943254;29;20047;-92
2022/05/09 04:57:52;;;;;;;3.35;1.73;;;;;;;;;;4942716;29;20051;-87
2022/05/09 05:00:21;;;;;;;3.72;1.67;;;;;;;;;;4957702;29;20492;-87
2022/05/09 05:02:55;;;;;;;4.20;1.88;;;;;;;;;;4940779;29;20493;-88
2022/05/09 05:05:21;;;;;;;8.27;2.10;;;;;;;;;;4942828;29;20160;-89
2022/05/09 05:07:50;;;;;;;1.77;1.58;;;;;;;;;;4958295;29;20122;-90
2022/05/09 05:10:17;;;;;;;4.07;2.15;;;;;;;;;;4960063;28;20146;-91
2022/05/09 05:12:43;;;;;;;4.40;2.35;;;;;;;;;;4958774;29;20106;-89
2022/05/09 05:15:10;;;;;;;6.53;2.25;;;;;;;;;;4957599;29;20051;-89
2022/05/09 05:17:37;;;;;;;7.03;2.40;;;;;;;;;;4940640;29;20379;-87
2022/05/09 05:20:04;;;;;;;6.75;3.38;;;;;;;;;;4956660;28;20043;-87
2022/05/09 05:22:34;;;;;;;8.98;3.80;;;;;;;;;;4940292;29;20039;-87
2022/05/09 05:25:01;;;;;;;8.50;5.30;;;;;;;;;;4939293;29;20193;-88
2022/05/09 05:27:27;;;;;;;8.95;3.63;;;;;;;;;;4940189;29;20437;-88
2022/05/09 05:29:57;;;;;;;13.57;5.18;;;;;;;;;;4955526;29;20055;-87
2022/05/09 05:32:26;;;;;;;9.88;4.63;;;;;;;;;;4955430;29;20051;-86
2022/05/09 05:34:52;;;;;;;11.25;4.35;;;;;;;;;;4939620;29;20047;-87
2022/05/09 05:37:19;;;;;;;10.98;5.10;;;;;;;;;;4940260;29;20043;-86
2022/05/09 05:39:46;;;;;;;17.05;4.55;;;;;;;;;;4956695;29;20047;-87
2022/05/09 05:42:14;;;;;;;14.20;4.93;;;;;;;;;;4941772;29;20046;-88
2022/05/09 05:44:41;;;;;;;8.70;4.40;;;;;;;;;;4958365;29;20163;-89
2022/05/09 05:47:08;;;;;;;12.30;5.25;;;;;;;;;;4959607;28;20091;-87
2022/05/09 05:49:35;;;;;;;14.05;6.38;;;;;;;;;;4957930;29;20110;-87
2022/05/09 05:52:03;;;;;;;12.98;4.80;;;;;;;;;;4957853;29;20404;-87
2022/05/09 05:54:30;;;;;;;9.90;5.63;;;;;;;;;;4944224;29;20054;-86
2022/05/09 05:56:56;;;;;;;16.92;6.55;;;;;;;;;;4942370;29;20046;-87
2022/05/09 05:59:23;;;;;;;17.92;5.55;;;;;;;;;;4939769;29;20049;-86
2022/05/09 06:01:51;;;;;;;22.02;5.50;;;;;;;;;;4955308;29;20103;-86
2022/05/09 06:04:18;;;;;;;16.95;5.35;;;;;;;;;;4938519;29;20075;-86
2022/05/09 06:06:44;;;;;;;14.60;4.85;;;;;;;;;;4938254;29;20496;-87
2022/05/09 06:09:11;;;;;;;9.25;4.43;;;;;;;;;;4939200;29;20098;-86
2022/05/09 06:11:41;;;;;;;11.88;5.47;;;;;;;;;;4955949;28;20083;-88
2022/05/09 06:14:07;;;;;;;8.40;4.40;;;;;;;;;;4955621;28;20043;-87
2022/05/09 06:16:34;;;;;;;11.50;4.95;;;;;;;;;;4938948;29;20130;-86
2022/05/09 06:19:00;;;;;;;13.73;6.57;;;;;;;;;;4956591;29;20432;-88
2022/05/09 06:21:27;;;;;;;12.40;4.68;;;;;;;;;;4956119;29;20048;-86
2022/05/09 06:23:54;;;;;;;10.30;5.57;;;;;;;;;;4954194;29;20043;-87
2022/05/09 06:26:22;;;;;;;12.95;6.20;;;;;;;;;;4955195;29;20476;-86
2022/05/09 06:28:48;;;;;;;15.52;7.75;;;;;;;;;;4954529;29;20107;-88
2022/05/09 06:31:14;;;;;;;22.88;7.03;;;;;;;;;;4955219;29;20054;-86
2022/05/09 06:33:40;;;;;;;20.02;7.32;;;;;;;;;;4954912;29;20050;-87
2022/05/09 06:36:06;;;;;;;11.90;7.57;;;;;;;;;;4954321;29;20082;-90
2022/05/09 06:38:33;;;;;;;27.60;7.53;;;;;;;;;;4956240;28;20051;-87
2022/05/09 06:41:01;;;;;;;19.33;7.30;;;;;;;;;;4954676;29;20065;-87
2022/05/09 06:43:28;;;;;;;23.75;8.00;;;;;;;;;;4954324;29;20090;-88
2022/05/09 06:45:54;;;;;;;19.55;7.70;;;;;;;;;;4954511;29;20051;-88
2022/05/09 06:48:21;;;;;;;14.25;7.05;;;;;;;;;;4955678;28;20047;-85
2022/05/09 06:50:47;;;;;;;21.50;6.95;;;;;;;;;;4956621;28;20126;-87
2022/05/09 06:53:13;;;;;;;15.35;6.80;;;;;;;;;;4959241;29;20048;-86
2022/05/09 06:55:39;;;;;;;19.77;6.95;;;;;;;;;;4959308;28;20047;-88
2022/05/09 06:58:10;;;;;;;18.08;7.82;;;;;;;;;;4958898;29;20051;-88
2022/05/09 07:00:37;;;;;;;16.55;7.13;;;;;;;;;;4942175;29;20047;-89
2022/05/09 07:03:04;;;;;;;23.08;6.65;;;;;;;;;;4958974;29;20047;-88
2022/05/09 07:05:30;;;;;;;22.23;6.78;;;;;;;;;;4959108;29;20051;-87
2022/05/09 07:07:57;;;;;;;15.63;7.10;;;;;;;;;;4958213;29;20051;-88
2022/05/09 07:10:26;;;;;;;13.23;6.38;;;;;;;;;;4960055;28;20066;-90
2022/05/09 07:12:53;;;;;;;14.20;5.97;;;;;;;;;;4942875;29;20035;-87
2022/05/09 07:15:22;;;;;;;15.68;5.97;;;;;;;;;;4942358;29;20043;-87
2022/05/09 07:17:50;;;;;;;18.77;5.88;;;;;;;;;;4957955;29;20460;-91
2022/05/09 07:20:16;;;;;;;17.33;5.47;;;;;;;;;;4942154;29;20075;-88
2022/05/09 07:22:42;;;;;;;11.40;5.28;;;;;;;;;;4958858;29;20453;-86
2022/05/09 07:25:11;;;;;;;15.13;5.40;;;;;;;;;;4942471;29;20055;-87
2022/05/09 07:27:37;;;;;;;13.25;6.20;;;;;;;;;;4958232;29;20048;-87
2022/05/09 07:30:03;;;;;;;14.15;6.00;;;;;;;;;;4957809;29;20047;-88
2022/05/09 07:32:29;;;;;;;17.13;5.40;;;;;;;;;;4959106;28;20504;-87
2022/05/09 07:34:55;;;;;;;17.40;5.20;;;;;;;;;;4957919;29;20047;-87
2022/05/09 07:37:22;;;;;;;14.65;6.45;;;;;;;;;;4959258;29;20077;-90
2022/05/09 07:39:48;;;;;;;24.45;5.90;;;;;;;;;;4959622;29;20047;-91
2022/05/09 07:42:14;;;;;;;10.98;5.07;;;;;;;;;;4959118;28;20101;-88
2022/05/09 07:44:40;;;;;;;15.82;5.28;;;;;;;;;;4957817;29;20138;-88
2022/05/09 07:47:07;;;;;;;11.20;5.13;;;;;;;;;;4959227;29;20138;-88
2022/05/09 07:49:33;;;;;;;12.20;5.28;;;;;;;;;;4958137;29;20146;-87
2022/05/09 07:51:59;;;;;;;9.43;5.00;;;;;;;;;;4958566;28;20049;-87
2022/05/09 07:54:25;;;;;;;12.38;5.65;;;;;;;;;;4957552;29;20047;-87
2022/05/09 07:56:51;;;;;;;16.98;5.45;;;;;;;;;;4958523;28;20054;-86
2022/05/09 07:59:20;;;;;;;13.93;5.50;;;;;;;;;;4940964;29;20110;-88
2022/05/09 08:01:46;;;;;;;19.80;6.20;;;;;;;;;;4959072;28;20054;-87
2022/05/09 08:04:12;;;;;;;14.82;5.03;;;;;;;;;;4960037;29;20114;-87
2022/05/09 08:06:38;;;;;;;14.57;5.22;;;;;;;;;;4942655;29;20130;-88
2022/05/09 08:09:05;;;;;;;12.63;5.00;;;;;;;;;;4959210;29;20050;-88
2022/05/09 08:11:31;;;;;;;12.73;5.07;;;;;;;;;;4957736;29;20047;-86
2022/05/09 08:13:58;;;;;;;13.40;5.68;;;;;;;;;;4959204;28;20404;-86
2022/05/09 08:16:27;;;;;;;11.05;5.13;;;;;;;;;;4958578;29;20551;-86
2022/05/09 08:18:53;;;;;;;10.55;4.78;;;;;;;;;;4958203;29;20062;-89
2022/05/09 08:21:19;;;;;;;10.27;4.95;;;;;;;;;;4957978;29;20049;-89
2022/05/09 08:23:46;;;;;;;10.15;4.50;;;13.30;99.90;;;;;;4959527;28;20047;-89
2022/05/09 08:26:12;;;;;;;8.35;4.38;;;;;;;;;;4957416;29;20389;-89
2022/05/09 08:28:39;;;;;;;15.98;4.93;;;;;;;;;;4941220;29;20055;-88
2022/05/09 08:31:05;;;;;;;15.60;5.55;;;;;;;;;;4940871;29;20054;-88
2022/05/09 08:33:32;;;;;;;12.07;4.22;;;;;;;;;;4957180;29;20120;-87
2022/05/09 08:35:58;;;;;;;12.07;4.38;;;;;;;;;;4957258;29;20047;-88
2022/05/09 08:38:24;;;;;;;10.50;4.18;;;;;;;;;;4956832;29;20463;-88
2022/05/09 08:41:07;;;;;;;11.95;3.60;;;14.00;99.90;;;;;;4958011;29;20066;-86
2022/05/09 08:43:48;;;;;;;16.05;4.68;;;;;;;;;;4958092;29;20485;-90
2022/05/09 08:46:26;;;;;;;10.90;4.85;;;14.30;99.90;;;;;;4957149;29;20399;-87
2022/05/09 08:49:02;;;;;;;14.45;4.65;;;14.40;99.90;;;;;;4957384;29;20051;-87
2022/05/09 08:51:58;;;;;;;9.10;3.58;;;14.60;99.90;;;;;;4957102;29;20047;-89
2022/05/09 08:54:26;;;;;;;13.35;4.03;;;14.60;99.90;;;;;;4956194;29;20055;-89
2022/05/09 08:57:06;;;;;;;7.20;3.25;;;14.70;99.90;;;;;;4956673;29;20047;-88
2022/05/09 08:59:38;;;;;;;9.35;3.90;;;14.60;99.90;;;;;;4957620;28;20059;-89
2022/05/09 09:02:14;;;;;;;9.25;4.50;;;15.10;99.90;;;;;;4956688;29;20085;-92
2022/05/09 09:04:49;;;;;;;6.78;3.35;;;15.10;99.90;;;;;;4956555;29;20051;-88
2022/05/09 09:07:43;;;;;;;12.63;2.70;;;15.10;99.90;;;;;;4940316;29;20051;-88
2022/05/09 09:10:47;;;;;;;6.55;2.92;;;15.30;99.90;;;;;;4957723;28;20433;-89
2022/05/09 09:13:20;;;;;;;10.85;3.40;;;15.40;99.90;;;;;;4939561;29;20051;-87
2022/05/09 09:16:22;;;;;;;15.07;3.88;;;15.40;99.90;;;;;;4939821;29;20047;-87
2022/05/09 09:19:21;;;;;;;11.20;2.80;;;15.70;99.90;;;;;;4957640;29;20098;-91
2022/05/09 09:21:57;;;;;;;11.35;3.03;;;15.70;99.90;;;;;;4956780;29;20102;-93
2022/05/09 09:25:02;;;;;;;16.17;5.35;;;15.60;99.90;;;;;;4957579;29;20062;-90
2022/05/09 09:27:45;;;;;;;10.50;3.00;;;15.90;99.90;;;;;;4943033;29;20089;-91
2022/05/09 09:30:46;;;;;;;4.82;2.83;;;15.70;99.90;;;;;;4959788;29;20047;-92
2022/05/09 09:33:32;;;;;;;12.63;3.38;;;;;;;;;;4959295;29;20062;-91
2022/05/09 09:36:46;;;;;;;4.38;2.70;;;16.10;99.90;;;;;;4962774;28;20061;-91
2022/05/09 09:39:19;;;;;;;8.95;3.08;;;16.10;99.90;;;;;;4945064;29;20055;-92
2022/05/09 09:41:58;;;;;;;9.77;2.90;;;;;;;;;;4940903;29;20511;-90
2022/05/09 09:44:53;;;;;;;4.97;2.40;;;16.50;99.90;;;;;;4956210;28;20047;-90
2022/05/09 09:47:42;;;;;;;;;;;;;;;;;;;;;
2022/05/09 09:51:05;;;;;;;4.82;2.53;;;16.60;99.90;;;;;;4957419;29;20039;-91
2022/05/09 09:53:37;;;;;;;9.90;3.03;;;;;;;;;;4869668;29;20142;-90
2022/05/09 09:56:27;;;;;;;12.43;2.92;;;16.90;99.90;;;;;;4869277;29;20096;-90
2022/05/09 09:59:23;;;;;;;7.55;2.97;;;16.80;99.90;;;;;;4868972;29;20051;-90
2022/05/09 10:02:38;;;;;;;12.00;4.13;;;17.10;99.90;;;;;;4868766;29;20060;-90
2022/05/09 10:05:14;;;;;;;8.25;2.85;;;17.00;99.90;;;;;;4884098;29;20063;-90
2022/05/09 10:07:44;;;;;;;10.57;3.50;;;;;;;;;;4868619;29;20056;-90
2022/05/09 10:10:25;;;;;;;12.30;3.13;;;17.20;99.90;;;;;;4869937;29;20052;-90
2022/05/09 10:12:57;;;;;;;8.73;3.30;;;17.40;99.90;;;;;;4868965;29;20048;-90
2022/05/09 10:15:26;;;;;;;8.15;2.53;;;;;;;;;;4884911;29;20058;-90
2022/05/09 10:17:53;;;;;;;8.65;2.50;;;17.40;99.90;;;;;;4869208;29;20052;-89
2022/05/09 10:20:47;;;;;;;5.97;3.43;;;;;;;;;;4869483;29;20057;-90
2022/05/09 10:26:53;;;;;;;9.77;2.83;;;17.80;99.90;;;;;;4888845;29;20164;-90
2022/05/09 10:29:25;;;;;;;11.70;2.90;;;17.80;99.90;;;;;;4887538;29;20080;-90
2022/05/09 10:32:22;;;;;;;9.88;2.83;;;17.80;99.90;;;;;;4887248;29;20501;-90
2022/05/09 10:35:16;;;;;;;6.38;3.08;;;18.00;99.90;;;;;;4872826;29;20045;-89
2022/05/09 10:37:51;;;;;;;5.43;2.60;;;18.00;99.90;;;;;;4885888;29;20200;-91
2022/05/09 10:40:42;;;;;;;10.02;2.90;;;18.20;99.90;;;;;;4886348;29;20047;-89
2022/05/09 10:43:34;;;;;;;9.27;3.10;;;18.20;99.90;;;;;;4886182;29;20076;-90
2022/05/09 10:46:11;;;;;;;7.80;2.50;;;18.40;99.90;;;;;;4884554;29;20040;-90
2022/05/09 10:49:01;;;;;;;9.55;3.03;;;18.30;99.90;;;;;;4884585;29;20045;-89
2022/05/09 10:51:28;;;;;;;5.60;3.17;;;;;;;;;;4884545;29;20053;-90
2022/05/09 10:54:06;;;;;;;5.90;2.40;;;18.50;99.90;;;;;;4884781;29;20100;-90
2022/05/09 10:56:50;;;;;;;11.52;3.78;;;18.70;99.90;;;;;;4900779;29;20059;-89
2022/05/09 10:59:24;;;;;;;5.80;2.78;;;18.70;99.90;;;;;;4885470;29;20045;-88
2022/05/09 11:02:00;;;;;;;9.60;3.08;;;18.50;99.90;;;;;;4897811;29;20051;-89
2022/05/09 11:04:31;;;;;;;4.38;2.67;;;18.70;99.90;;;;;;4958220;29;20519;-89
2022/05/09 11:07:12;;;;;;;9.27;2.75;;;18.70;99.90;;;;;;4942296;29;20085;-90
2022/05/09 11:09:45;;;;;;;7.05;2.95;;;18.70;99.90;;;;;;4957680;29;20106;-89
2022/05/09 11:12:40;;;;;;;14.63;3.35;;;18.80;99.90;;;;;;4941862;29;20485;-90
2022/05/09 11:15:29;;;;;;;7.10;2.72;;;18.90;99.90;;;;;;4941507;29;20086;-91
2022/05/09 11:18:10;;;;;;;6.07;2.88;;;18.80;99.90;;;;;;4941462;29;20087;-90
2022/05/09 11:21:17;;;;;;;9.15;3.30;;;19.20;99.90;;;;;;4941878;29;20048;-90
2022/05/09 11:24:03;;;;;;;10.77;3.28;;;19.10;99.90;;;;;;4958852;29;20066;-90
2022/05/09 11:27:08;;;;;;;6.95;2.35;;;19.30;99.90;;;;;;4941211;29;20055;-89
2022/05/09 11:30:08;;;;;;;9.23;3.65;;;19.30;99.90;;;;;;4941382;29;20534;-90
2022/05/09 11:32:38;;;;;;;9.25;3.13;;;19.60;99.90;;;;;;4957832;29;20568;-90
2022/05/09 11:35:31;;;;;;;6.93;3.00;;;19.50;99.90;;;;;;4956872;28;20054;-90
2022/05/09 11:38:26;;;;;;;13.15;3.28;;;19.40;99.90;;;;;;4883891;29;20068;-91
2022/05/09 11:40:52;;;;;;;4.88;2.85;;;;;;;;;;4900450;29;20049;-90
2022/05/09 11:44:04;;;;;;;8.20;2.78;;;19.50;99.90;;;;;;4869382;29;20119;-90
2022/05/09 11:46:54;;;;;;;13.45;3.72;;;19.70;99.90;;;;;;4869319;29;20063;-89
2022/05/09 11:49:46;;;;;;;9.73;3.22;;;21.80;99.90;;;;;;4869384;29;20123;-90
2022/05/09 11:52:27;;;;;;;9.32;3.25;;;19.70;99.90;;;;;;4883809;29;20052;-89
2022/05/09 11:54:59;;;;;;;4.43;2.50;;;19.80;99.90;;;;;;4868446;29;20053;-90
2022/05/09 11:57:34;;;;;;;6.82;2.60;;;19.70;99.90;;;;;;4900313;29;20486;-90
2022/05/09 12:00:11;;;;;;;6.63;2.80;;;19.80;99.90;;;;;;4883693;29;20059;-90
2022/05/09 12:02:50;;;;;;;8.77;3.45;;;19.80;99.90;;;;;;4868412;29;20131;-88
2022/05/09 12:05:35;;;;;;;8.70;3.17;;;19.80;99.90;;;;;;4899336;29;20088;-90
2022/05/09 12:08:46;;;;;;;5.45;3.08;;;20.00;99.90;;;;;;4899708;29;20061;-90
2022/05/09 12:11:24;;;;;;;8.30;3.58;;;20.10;99.90;;;;;;4824802;29;20054;-90
2022/05/09 12:13:52;;;;;;;6.50;2.72;;;20.00;99.90;;;;;;4809900;29;20062;-89
2022/05/09 12:16:36;;;;;;;5.20;2.60;;;20.30;99.90;;;;;;4846586;29;20141;-89
2022/05/09 12:19:14;;;;;;;7.88;2.75;;;20.50;99.90;;;;;;4831767;29;20052;-89
2022/05/09 12:21:50;;;;;;;6.95;2.80;;;20.80;99.90;;;;;;4846987;29;20589;-89
2022/05/09 12:24:31;;;;;;;12.15;3.38;;;20.60;99.90;;;;;;4846907;29;20056;-89
2022/05/09 12:27:02;;;;;;;10.73;2.60;;;20.70;99.90;;;;;;4830745;29;20053;-89
2022/05/09 12:29:58;;;;;;;10.00;3.10;;;20.60;99.90;;;;;;4832844;29;20045;-89
2022/05/09 12:32:24;;;;;;;8.23;2.42;;;;;;;;;;4846823;29;20144;-89
2022/05/09 12:35:01;;;;;;;5.57;2.20;;;20.90;99.90;;;;;;4833275;29;20057;-90
2022/05/09 12:37:44;;;;;;;8.20;2.70;;;21.30;99.90;;;;;;4938593;29;20059;-89
2022/05/09 12:40:22;;;;;;;5.82;1.90;;;21.10;99.90;;;;;;4951577;29;20180;-89
2022/05/09 12:42:55;;;;;;;7.07;2.60;;;21.00;99.90;;;;;;4954551;29;20047;-90
2022/05/09 12:45:27;;;;;;;6.60;2.15;;;21.00;99.90;;;;;;4953595;29;20047;-89
2022/05/09 12:47:53;;;;;;;8.15;2.72;;;;;;;;;;4952197;29;20043;-89
2022/05/09 12:50:37;;;;;;;6.82;2.70;;;21.50;99.90;;;;;;4949274;29;20078;-89
2022/05/09 12:53:07;;;;;;;8.52;2.88;;;21.40;99.90;;;;;;4965651;29;20141;-89
2022/05/09 12:55:52;;;;;;;8.37;2.20;;;21.50;99.90;;;;;;4942148;28;20138;-88
2022/05/09 12:58:30;;;;;;;12.55;2.70;;;22.30;99.90;;;;;;4956821;29;20130;-89
2022/05/09 13:01:20;;;;;;;9.85;3.45;;;21.60;99.90;;;;;;4940320;29;20480;-88
2022/05/09 13:03:58;;;;;;;5.78;2.47;;;22.10;99.90;;;;;;4955002;29;20441;-89
2022/05/09 13:06:33;;;;;;;9.68;2.70;;;22.10;99.90;;;;;;4940314;29;20044;-89
2022/05/09 13:09:12;;;;;;;6.40;2.50;;;22.10;99.90;;;;;;4940247;29;20054;-90
2022/05/09 13:11:38;;;;;;;5.72;2.28;;;20.30;99.90;;;;;;4940795;29;20103;-90
2022/05/09 13:14:21;;;;;;;4.30;1.98;;;22.70;99.90;;;;;;4940264;29;20194;-89
2022/05/09 13:17:03;;;;;;;10.25;3.28;;;22.20;99.90;;;;;;4956190;29;20504;-89
2022/05/09 13:19:31;;;;;;;5.32;2.05;;;22.20;99.90;;;;;;4916979;29;20060;-89
2022/05/09 13:21:57;;;;;;;5.00;2.13;;;22.20;99.90;;;;;;4885776;29;20052;-89
2022/05/09 13:24:33;;;;;;;7.38;2.45;;;20.50;99.90;;;;;;4885257;29;20052;-90
2022/05/09 13:27:05;;;;;;;5.97;2.22;;;22.50;99.90;;;;;;4885263;29;20572;-89
2022/05/09 13:29:38;;;;;;;2.78;1.55;;;22.40;99.90;;;;;;4900753;29;20056;-89
2022/05/09 13:32:07;;;;;;;6.00;2.17;;;22.40;99.90;;;;;;4885204;29;20051;-89
2022/05/09 13:34:37;;;;;;;6.40;1.92;;;22.90;99.90;;;;;;4885414;29;20068;-88
2022/05/09 13:37:08;;;;;;;5.15;1.73;;;22.70;99.90;;;;;;4885584;29;20054;-89
2022/05/09 13:39:47;;;;;;;5.75;1.95;;;22.90;99.90;;;;;;4900837;29;20112;-89
2022/05/09 13:42:21;;;;;;;3.58;1.70;;;21.40;99.90;;;;;;4885252;29;20052;-89
2022/05/09 13:44:53;;;;;;;4.13;2.38;;;23.20;99.90;;;;;;4886169;29;20107;-89
2022/05/09 13:47:25;;;;;;;3.65;1.80;;;23.10;99.90;;;;;;4900566;29;20158;-89
2022/05/09 13:49:57;;;;;;;7.85;2.13;;;21.40;99.90;;;;;;4896174;29;20110;-88
2022/05/09 13:52:34;;;;;;;4.30;2.25;;;23.60;99.90;;;;;;4955327;29;20106;-89
2022/05/09 13:55:02;;;;;;;4.50;2.05;;;23.70;99.90;;;;;;4955237;29;20079;-88
2022/05/09 13:57:52;;;;;;;2.28;1.75;;;23.60;99.90;;;;;;4939364;29;20043;-90
2022/05/09 14:00:30;;;;;;;6.63;2.38;;;23.40;99.90;;;;;;4954990;29;20518;-90
2022/05/09 14:03:00;;;;;;;6.68;2.42;;;23.00;99.90;;;;;;4939603;29;20051;-90
2022/05/09 14:05:32;;;;;;;8.52;3.00;;;23.40;99.90;;;;;;4955610;29;20051;-89
2022/05/09 14:08:03;;;;;;;7.93;2.00;;;23.80;99.90;;;;;;4939294;29;20060;-89
2022/05/09 14:10:38;;;;;;;6.45;2.10;;;24.00;99.90;;;;;;4920542;29;20401;-89
2022/05/09 14:13:31;;;;;;;4.93;2.40;;;23.60;99.90;;;;;;4935945;29;20497;-90
2022/05/09 14:16:34;;;;;;;7.18;2.60;;;23.70;99.90;;;;;;4919305;29;20709;-89
2022/05/09 14:19:08;;;;;;;3.58;1.88;;;24.10;99.90;;;;;;4936841;29;20056;-89
2022/05/09 14:21:45;;;;;;;6.32;2.47;;;25.60;99.90;;;;;;4935919;29;20408;-90
2022/05/09 14:24:14;;;;;;;7.80;2.42;;;24.00;99.90;;;;;;4919816;29;20088;-90
2022/05/09 14:29:38;;;;;;;7.55;2.25;;;24.30;99.90;;;;;;4937097;29;20133;-90
2022/05/09 14:32:22;;;;;;;9.20;3.28;;;24.70;99.90;;;;;;4936768;29;20075;-89
2022/05/09 14:34:51;;;;;;;2.53;1.80;;;22.50;99.90;;;;;;4936240;29;20048;-90
2022/05/09 14:37:30;;;;;;;9.50;2.10;;;25.00;99.90;;;;;;4919563;29;20046;-90